Armada, Michigan
Current Conditions -  °F | °C
As of 11:55 AM on Wednesday 26 Nov 2014 (Local Time) from KMTC Reporting Station
Overcast Overcast  
Wind Chill: -3°   Ceiling: 3400
Heat Index:   Visibility: 10mi
Dew Point: -5°   Wind: 6mph
Humidity: 66%   Direction: 30°NNE
Pressure: 30.12"   Gusts: NA
Location:  42.84°N, 82.88°W
Report Text: KMTC 261655Z 03005KT 10SM OVC034 00/M05 A3012 RMK SLP213 T00041052
Loading
Personal Weather Stations






























Interactive Weather Map New forecast layout! Learn more

10-Day Weather Forecast

Advertisements
Track Severe Weather on mobile